sensor_id;sensor_type;location;lat;lon;timestamp;temperature;humidity
10911;DHT22;5508;49.150;11.030;2023-06-22T00:01:41;16.10;99.90
10911;DHT22;5508;49.150;11.030;2023-06-22T00:04:42;16.10;99.90
10911;DHT22;5508;49.150;11.030;2023-06-22T00:07:42;16.00;99.90
10911;DHT22;5508;49.150;11.030;2023-06-22T00:10:44;16.00;99.90
10911;DHT22;5508;49.150;11.030;2023-06-22T00:13:45;16.00;99.90
10911;DHT22;5508;49.150;11.030;2023-06-22T00:16:45;16.00;99.90
10911;DHT22;5508;49.150;11.030;2023-06-22T00:19:48;16.00;99.90
10911;DHT22;5508;49.150;11.030;2023-06-22T00:22:57;16.00;99.90
10911;DHT22;5508;49.150;11.030;2023-06-22T00:25:58;16.00;99.90
10911;DHT22;5508;49.150;11.030;2023-06-22T00:28:59;16.00;99.90
10911;DHT22;5508;49.150;11.030;2023-06-22T00:31:59;16.10;99.90
10911;DHT22;5508;49.150;11.030;2023-06-22T00:35:00;16.00;99.90
10911;DHT22;5508;49.150;11.030;2023-06-22T00:38:01;16.00;99.90
10911;DHT22;5508;49.150;11.030;2023-06-22T00:41:02;16.00;99.90
10911;DHT22;5508;49.150;11.030;2023-06-22T00:44:03;16.00;99.90
10911;DHT22;5508;49.150;11.030;2023-06-22T00:47:04;15.90;99.90
10911;DHT22;5508;49.150;11.030;2023-06-22T00:50:07;15.90;99.90
10911;DHT22;5508;49.150;11.030;2023-06-22T00:53:10;15.90;99.90
10911;DHT22;5508;49.150;11.030;2023-06-22T00:56:12;15.90;99.90
10911;DHT22;5508;49.150;11.030;2023-06-22T00:59:12;15.80;99.90
10911;DHT22;5508;49.150;11.030;2023-06-22T01:02:13;15.80;99.90
10911;DHT22;5508;49.150;11.030;2023-06-22T01:05:16;15.80;99.90
10911;DHT22;5508;49.150;11.030;2023-06-22T01:11:26;15.80;99.90
10911;DHT22;5508;49.150;11.030;2023-06-22T01:14:45;15.80;99.90
10911;DHT22;5508;49.150;11.030;2023-06-22T01:17:48;15.70;99.90
10911;DHT22;5508;49.150;11.030;2023-06-22T01:20:50;15.70;99.90
10911;DHT22;5508;49.150;11.030;2023-06-22T01:24:30;15.60;99.90
10911;DHT22;5508;49.150;11.030;2023-06-22T01:30:53;15.60;99.90
10911;DHT22;5508;49.150;11.030;2023-06-22T01:34:05;15.50;99.90
10911;DHT22;5508;49.150;11.030;2023-06-22T01:37:06;15.50;99.90
10911;DHT22;5508;49.150;11.030;2023-06-22T01:40:08;15.40;99.90
10911;DHT22;5508;49.150;11.030;2023-06-22T01:43:09;15.40;99.90
10911;DHT22;5508;49.150;11.030;2023-06-22T01:46:10;15.40;99.90
10911;DHT22;5508;49.150;11.030;2023-06-22T01:49:12;15.30;99.90
10911;DHT22;5508;49.150;11.030;2023-06-22T01:52:13;15.30;99.90
10911;DHT22;5508;49.150;11.030;2023-06-22T01:55:14;15.30;99.90
10911;DHT22;5508;49.150;11.030;2023-06-22T01:58:15;15.30;99.90
10911;DHT22;5508;49.150;11.030;2023-06-22T02:01:20;15.30;99.90
10911;DHT22;5508;49.150;11.030;2023-06-22T02:04:26;15.30;99.90
10911;DHT22;5508;49.150;11.030;2023-06-22T02:07:31;15.30;99.90
10911;DHT22;5508;49.150;11.030;2023-06-22T02:10:34;15.30;99.90
10911;DHT22;5508;49.150;11.030;2023-06-22T02:13:37;15.20;99.90
10911;DHT22;5508;49.150;11.030;2023-06-22T02:16:38;15.20;99.90
10911;DHT22;5508;49.150;11.030;2023-06-22T02:19:41;15.20;99.90
10911;DHT22;5508;49.150;11.030;2023-06-22T02:22:42;15.20;99.90
10911;DHT22;5508;49.150;11.030;2023-06-22T02:25:43;15.20;99.90
10911;DHT22;5508;49.150;11.030;2023-06-22T02:28:44;15.20;99.90
10911;DHT22;5508;49.150;11.030;2023-06-22T02:31:46;15.20;99.90
10911;DHT22;5508;49.150;11.030;2023-06-22T02:34:47;15.10;99.90
10911;DHT22;5508;49.150;11.030;2023-06-22T02:37:47;15.10;99.90
10911;DHT22;5508;49.150;11.030;2023-06-22T02:40:52;15.10;99.90
10911;DHT22;5508;49.150;11.030;2023-06-22T02:43:52;15.00;99.90
10911;DHT22;5508;49.150;11.030;2023-06-22T02:46:53;15.00;99.90
10911;DHT22;5508;49.150;11.030;2023-06-22T02:49:54;15.00;99.90
10911;DHT22;5508;49.150;11.030;2023-06-22T02:52:55;15.00;99.90
10911;DHT22;5508;49.150;11.030;2023-06-22T02:55:56;15.00;99.90
10911;DHT22;5508;49.150;11.030;2023-06-22T02:58:56;14.90;99.90
10911;DHT22;5508;49.150;11.030;2023-06-22T03:02:01;15.00;99.90
10911;DHT22;5508;49.150;11.030;2023-06-22T03:05:03;15.00;99.90
10911;DHT22;5508;49.150;11.030;2023-06-22T03:08:04;15.00;99.90
10911;DHT22;5508;49.150;11.030;2023-06-22T03:11:05;15.00;99.90
10911;DHT22;5508;49.150;11.030;2023-06-22T03:14:05;15.10;99.90
10911;DHT22;5508;49.150;11.030;2023-06-22T03:17:06;15.10;99.90
10911;DHT22;5508;49.150;11.030;2023-06-22T03:20:07;15.20;99.90
10911;DHT22;5508;49.150;11.030;2023-06-22T03:23:12;15.20;99.90
10911;DHT22;5508;49.150;11.030;2023-06-22T03:26:12;15.10;99.90
10911;DHT22;5508;49.150;11.030;2023-06-22T03:29:13;15.20;99.90
10911;DHT22;5508;49.150;11.030;2023-06-22T03:32:15;15.20;99.90
10911;DHT22;5508;49.150;11.030;2023-06-22T03:35:16;15.10;99.90
10911;DHT22;5508;49.150;11.030;2023-06-22T03:38:17;15.10;99.90
10911;DHT22;5508;49.150;11.030;2023-06-22T03:41:17;15.10;99.90
10911;DHT22;5508;49.150;11.030;2023-06-22T03:44:18;15.10;99.90
10911;DHT22;5508;49.150;11.030;2023-06-22T03:47:19;15.10;99.90
10911;DHT22;5508;49.150;11.030;2023-06-22T03:50:19;15.10;99.90
10911;DHT22;5508;49.150;11.030;2023-06-22T03:53:20;15.00;99.90
10911;DHT22;5508;49.150;11.030;2023-06-22T03:56:21;15.10;99.90
10911;DHT22;5508;49.150;11.030;2023-06-22T03:59:21;15.10;99.90
10911;DHT22;5508;49.150;11.030;2023-06-22T04:02:22;15.10;99.90
10911;DHT22;5508;49.150;11.030;2023-06-22T04:05:23;15.10;99.90
10911;DHT22;5508;49.150;11.030;2023-06-22T04:08:24;15.10;99.90
10911;DHT22;5508;49.150;11.030;2023-06-22T04:11:25;15.10;99.90
10911;DHT22;5508;49.150;11.030;2023-06-22T04:14:25;15.30;99.90
10911;DHT22;5508;49.150;11.030;2023-06-22T04:17:26;15.30;99.90
10911;DHT22;5508;49.150;11.030;2023-06-22T04:20:27;15.40;99.90
10911;DHT22;5508;49.150;11.030;2023-06-22T04:23:27;15.50;99.90
10911;DHT22;5508;49.150;11.030;2023-06-22T04:26:28;15.70;99.90
10911;DHT22;5508;49.150;11.030;2023-06-22T04:29:31;15.90;99.90
10911;DHT22;5508;49.150;11.030;2023-06-22T04:32:32;16.00;99.90
10911;DHT22;5508;49.150;11.030;2023-06-22T04:35:33;16.20;99.90
10911;DHT22;5508;49.150;11.030;2023-06-22T04:38:33;16.30;99.90
10911;DHT22;5508;49.150;11.030;2023-06-22T04:41:34;16.40;99.90
10911;DHT22;5508;49.150;11.030;2023-06-22T04:44:42;16.50;99.90
10911;DHT22;5508;49.150;11.030;2023-06-22T04:47:42;16.60;99.90
10911;DHT22;5508;49.150;11.030;2023-06-22T04:50:45;16.70;99.90
10911;DHT22;5508;49.150;11.030;2023-06-22T04:53:46;16.70;99.90
10911;DHT22;5508;49.150;11.030;2023-06-22T04:56:47;16.90;99.90
10911;DHT22;5508;49.150;11.030;2023-06-22T04:59:48;17.00;99.90
10911;DHT22;5508;49.150;11.030;2023-06-22T05:02:49;17.10;99.90
10911;DHT22;5508;49.150;11.030;2023-06-22T05:05:49;17.40;99.90
10911;DHT22;5508;49.150;11.030;2023-06-22T05:08:56;17.60;99.90
10911;DHT22;5508;49.150;11.030;2023-06-22T05:11:59;17.80;99.90
10911;DHT22;5508;49.150;11.030;2023-06-22T05:15:02;18.00;99.90
10911;DHT22;5508;49.150;11.030;2023-06-22T05:18:03;18.00;99.90
10911;DHT22;5508;49.150;11.030;2023-06-22T05:21:05;18.10;99.90
10911;DHT22;5508;49.150;11.030;2023-06-22T05:24:06;18.10;99.90
10911;DHT22;5508;49.150;11.030;2023-06-22T05:27:07;17.90;99.90
10911;DHT22;5508;49.150;11.030;2023-06-22T05:30:08;18.00;99.90
10911;DHT22;5508;49.150;11.030;2023-06-22T05:33:09;18.10;99.90
10911;DHT22;5508;49.150;11.030;2023-06-22T05:36:10;18.30;99.90
10911;DHT22;5508;49.150;11.030;2023-06-22T05:39:12;18.30;99.90
10911;DHT22;5508;49.150;11.030;2023-06-22T05:42:16;18.50;99.90
10911;DHT22;5508;49.150;11.030;2023-06-22T05:45:16;18.80;99.90
10911;DHT22;5508;49.150;11.030;2023-06-22T05:48:17;18.80;99.90
10911;DHT22;5508;49.150;11.030;2023-06-22T05:51:18;19.00;99.90
10911;DHT22;5508;49.150;11.030;2023-06-22T05:54:18;19.10;99.90
10911;DHT22;5508;49.150;11.030;2023-06-22T05:57:19;19.20;99.90
10911;DHT22;5508;49.150;11.030;2023-06-22T06:00:22;19.20;99.90
10911;DHT22;5508;49.150;11.030;2023-06-22T06:03:23;19.50;99.90
10911;DHT22;5508;49.150;11.030;2023-06-22T06:06:24;19.70;99.90
10911;DHT22;5508;49.150;11.030;2023-06-22T06:09:28;20.00;99.90
10911;DHT22;5508;49.150;11.030;2023-06-22T06:12:29;20.10;99.90
10911;DHT22;5508;49.150;11.030;2023-06-22T06:15:30;20.50;99.90
10911;DHT22;5508;49.150;11.030;2023-06-22T06:18:31;20.60;98.00
10911;DHT22;5508;49.150;11.030;2023-06-22T06:21:31;20.80;97.20
10911;DHT22;5508;49.150;11.030;2023-06-22T06:24:32;20.90;93.90
10911;DHT22;5508;49.150;11.030;2023-06-22T06:27:33;21.00;94.70
10911;DHT22;5508;49.150;11.030;2023-06-22T06:30:33;21.20;95.40
10911;DHT22;5508;49.150;11.030;2023-06-22T06:33:35;21.20;92.50
10911;DHT22;5508;49.150;11.030;2023-06-22T06:36:36;21.40;93.50
10911;DHT22;5508;49.150;11.030;2023-06-22T06:39:37;21.60;93.00
10911;DHT22;5508;49.150;11.030;2023-06-22T06:42:39;21.80;91.80
10911;DHT22;5508;49.150;11.030;2023-06-22T06:45:42;22.00;89.50
10911;DHT22;5508;49.150;11.030;2023-06-22T06:48:42;22.00;88.40
10911;DHT22;5508;49.150;11.030;2023-06-22T06:51:46;22.10;88.90
10911;DHT22;5508;49.150;11.030;2023-06-22T06:54:47;22.30;88.60
10911;DHT22;5508;49.150;11.030;2023-06-22T06:57:47;22.40;87.80
10911;DHT22;5508;49.150;11.030;2023-06-22T07:00:49;22.70;86.00
10911;DHT22;5508;49.150;11.030;2023-06-22T07:03:49;22.80;84.30
10911;DHT22;5508;49.150;11.030;2023-06-22T07:06:50;23.10;84.20
10911;DHT22;5508;49.150;11.030;2023-06-22T07:09:50;23.30;83.00
10911;DHT22;5508;49.150;11.030;2023-06-22T07:12:51;23.70;83.60
10911;DHT22;5508;49.150;11.030;2023-06-22T07:15:51;23.70;77.70
10911;DHT22;5508;49.150;11.030;2023-06-22T07:18:52;24.00;81.40
10911;DHT22;5508;49.150;11.030;2023-06-22T07:21:53;24.20;77.10
10911;DHT22;5508;49.150;11.030;2023-06-22T07:24:54;24.20;76.60
10911;DHT22;5508;49.150;11.030;2023-06-22T07:28:02;24.20;74.50
10911;DHT22;5508;49.150;11.030;2023-06-22T07:31:03;24.30;74.90
10911;DHT22;5508;49.150;11.030;2023-06-22T07:34:04;24.50;72.70
10911;DHT22;5508;49.150;11.030;2023-06-22T07:37:05;24.50;71.40
10911;DHT22;5508;49.150;11.030;2023-06-22T07:40:07;24.80;74.20
10911;DHT22;5508;49.150;11.030;2023-06-22T07:43:08;25.10;69.90
10911;DHT22;5508;49.150;11.030;2023-06-22T07:46:08;25.30;70.40
10911;DHT22;5508;49.150;11.030;2023-06-22T07:49:09;25.70;67.90
10911;DHT22;5508;49.150;11.030;2023-06-22T07:52:10;26.00;62.70
10911;DHT22;5508;49.150;11.030;2023-06-22T07:55:11;26.00;62.90
10911;DHT22;5508;49.150;11.030;2023-06-22T07:58:11;26.10;65.10
10911;DHT22;5508;49.150;11.030;2023-06-22T08:01:16;26.40;63.70
10911;DHT22;5508;49.150;11.030;2023-06-22T08:04:17;26.50;60.90
10911;DHT22;5508;49.150;11.030;2023-06-22T08:07:17;26.80;60.90
10911;DHT22;5508;49.150;11.030;2023-06-22T08:10:20;26.70;57.20
10911;DHT22;5508;49.150;11.030;2023-06-22T08:13:20;26.60;56.70
10911;DHT22;5508;49.150;11.030;2023-06-22T08:16:21;26.30;59.00
10911;DHT22;5508;49.150;11.030;2023-06-22T08:19:22;26.60;58.80
10911;DHT22;5508;49.150;11.030;2023-06-22T08:22:23;26.80;57.70
10911;DHT22;5508;49.150;11.030;2023-06-22T08:25:24;27.00;57.50
10911;DHT22;5508;49.150;11.030;2023-06-22T08:28:24;27.10;57.00
10911;DHT22;5508;49.150;11.030;2023-06-22T08:31:25;27.40;55.00
10911;DHT22;5508;49.150;11.030;2023-06-22T08:34:25;27.50;53.30
10911;DHT22;5508;49.150;11.030;2023-06-22T08:37:28;27.20;52.00
10911;DHT22;5508;49.150;11.030;2023-06-22T08:40:32;27.10;56.20
10911;DHT22;5508;49.150;11.030;2023-06-22T08:43:32;27.50;53.50
10911;DHT22;5508;49.150;11.030;2023-06-22T08:46:33;27.70;54.90
10911;DHT22;5508;49.150;11.030;2023-06-22T08:49:33;28.00;54.70
10911;DHT22;5508;49.150;11.030;2023-06-22T08:52:34;28.20;54.90
10911;DHT22;5508;49.150;11.030;2023-06-22T08:55:35;28.10;53.30
10911;DHT22;5508;49.150;11.030;2023-06-22T08:58:36;28.20;51.50
10911;DHT22;5508;49.150;11.030;2023-06-22T09:01:36;28.20;53.30
10911;DHT22;5508;49.150;11.030;2023-06-22T09:04:37;28.20;50.70
10911;DHT22;5508;49.150;11.030;2023-06-22T09:07:37;28.20;54.10
10911;DHT22;5508;49.150;11.030;2023-06-22T09:10:38;28.30;53.20
10911;DHT22;5508;49.150;11.030;2023-06-22T09:13:38;28.30;51.00
10911;DHT22;5508;49.150;11.030;2023-06-22T09:16:39;28.20;52.50
10911;DHT22;5508;49.150;11.030;2023-06-22T09:19:40;28.10;52.60
10911;DHT22;5508;49.150;11.030;2023-06-22T09:22:40;28.20;50.60
10911;DHT22;5508;49.150;11.030;2023-06-22T09:25:41;28.40;53.20
10911;DHT22;5508;49.150;11.030;2023-06-22T09:28:42;28.60;50.40
10911;DHT22;5508;49.150;11.030;2023-06-22T09:31:42;28.80;47.80
10911;DHT22;5508;49.150;11.030;2023-06-22T09:34:43;28.90;49.90
10911;DHT22;5508;49.150;11.030;2023-06-22T09:37:43;28.90;49.40
10911;DHT22;5508;49.150;11.030;2023-06-22T09:40:45;28.80;47.20
10911;DHT22;5508;49.150;11.030;2023-06-22T09:43:46;28.60;48.50
10911;DHT22;5508;49.150;11.030;2023-06-22T09:46:46;28.60;47.20
10911;DHT22;5508;49.150;11.030;2023-06-22T09:49:47;28.80;51.60
10911;DHT22;5508;49.150;11.030;2023-06-22T09:52:47;29.00;48.70
10911;DHT22;5508;49.150;11.030;2023-06-22T09:55:51;29.10;47.20
10911;DHT22;5508;49.150;11.030;2023-06-22T09:58:51;29.30;47.10
10911;DHT22;5508;49.150;11.030;2023-06-22T10:01:53;29.20;46.40
10911;DHT22;5508;49.150;11.030;2023-06-22T10:04:53;29.50;47.00
10911;DHT22;5508;49.150;11.030;2023-06-22T10:07:54;29.40;45.90
10911;DHT22;5508;49.150;11.030;2023-06-22T10:10:54;29.60;46.70
10911;DHT22;5508;49.150;11.030;2023-06-22T10:13:55;29.70;52.70
10911;DHT22;5508;49.150;11.030;2023-06-22T10:16:56;29.80;50.80
10911;DHT22;5508;49.150;11.030;2023-06-22T10:19:56;29.60;54.00
10911;DHT22;5508;49.150;11.030;2023-06-22T10:22:57;29.70;57.60
10911;DHT22;5508;49.150;11.030;2023-06-22T10:25:57;29.70;43.60
10911;DHT22;5508;49.150;11.030;2023-06-22T10:28:58;29.70;47.20
10911;DHT22;5508;49.150;11.030;2023-06-22T10:31:59;29.90;43.80
10911;DHT22;5508;49.150;11.030;2023-06-22T10:35:00;29.90;44.40
10911;DHT22;5508;49.150;11.030;2023-06-22T10:38:00;30.00;44.00
10911;DHT22;5508;49.150;11.030;2023-06-22T10:41:01;29.90;45.40
10911;DHT22;5508;49.150;11.030;2023-06-22T10:44:02;30.10;43.00
10911;DHT22;5508;49.150;11.030;2023-06-22T10:47:03;30.10;45.60
10911;DHT22;5508;49.150;11.030;2023-06-22T10:50:04;30.30;43.70
10911;DHT22;5508;49.150;11.030;2023-06-22T10:53:05;30.30;44.60
10911;DHT22;5508;49.150;11.030;2023-06-22T10:56:06;30.40;43.50
10911;DHT22;5508;49.150;11.030;2023-06-22T10:59:07;30.50;42.40
10911;DHT22;5508;49.150;11.030;2023-06-22T11:02:07;30.40;42.80
10911;DHT22;5508;49.150;11.030;2023-06-22T11:05:08;30.70;42.20
10911;DHT22;5508;49.150;11.030;2023-06-22T11:08:09;30.40;43.30
10911;DHT22;5508;49.150;11.030;2023-06-22T11:11:09;30.60;42.00
10911;DHT22;5508;49.150;11.030;2023-06-22T11:14:10;30.80;44.10
10911;DHT22;5508;49.150;11.030;2023-06-22T11:17:10;31.00;43.30
10911;DHT22;5508;49.150;11.030;2023-06-22T11:20:11;31.20;41.40
10911;DHT22;5508;49.150;11.030;2023-06-22T11:23:12;31.20;40.00
10911;DHT22;5508;49.150;11.030;2023-06-22T11:26:12;31.10;42.60
10911;DHT22;5508;49.150;11.030;2023-06-22T11:29:13;31.10;41.30
10911;DHT22;5508;49.150;11.030;2023-06-22T11:32:14;31.00;39.30
10911;DHT22;5508;49.150;11.030;2023-06-22T11:35:14;31.00;40.20
10911;DHT22;5508;49.150;11.030;2023-06-22T11:38:15;31.20;42.40
10911;DHT22;5508;49.150;11.030;2023-06-22T11:41:15;31.00;39.00
10911;DHT22;5508;49.150;11.030;2023-06-22T11:44:16;30.80;39.50
10911;DHT22;5508;49.150;11.030;2023-06-22T11:47:17;30.80;42.70
10911;DHT22;5508;49.150;11.030;2023-06-22T11:50:17;30.80;40.20
10911;DHT22;5508;49.150;11.030;2023-06-22T11:53:18;30.90;38.60
10911;DHT22;5508;49.150;11.030;2023-06-22T11:56:18;31.00;39.10
10911;DHT22;5508;49.150;11.030;2023-06-22T11:59:19;31.30;39.60
10911;DHT22;5508;49.150;11.030;2023-06-22T12:02:21;31.40;39.60
10911;DHT22;5508;49.150;11.030;2023-06-22T12:08:24;31.90;37.30
10911;DHT22;5508;49.150;11.030;2023-06-22T12:11:25;31.90;38.60
10911;DHT22;5508;49.150;11.030;2023-06-22T12:14:25;31.70;38.80
10911;DHT22;5508;49.150;11.030;2023-06-22T12:17:26;31.50;39.20
10911;DHT22;5508;49.150;11.030;2023-06-22T12:20:26;31.60;38.90
10911;DHT22;5508;49.150;11.030;2023-06-22T12:23:27;31.80;38.50
10911;DHT22;5508;49.150;11.030;2023-06-22T12:26:28;31.80;38.50
10911;DHT22;5508;49.150;11.030;2023-06-22T12:29:28;31.90;37.10
10911;DHT22;5508;49.150;11.030;2023-06-22T12:32:29;31.70;38.90
10911;DHT22;5508;49.150;11.030;2023-06-22T12:35:30;31.90;38.60
10911;DHT22;5508;49.150;11.030;2023-06-22T12:38:31;31.80;38.60
10911;DHT22;5508;49.150;11.030;2023-06-22T12:41:31;32.00;38.30
10911;DHT22;5508;49.150;11.030;2023-06-22T12:44:32;32.30;37.60
10911;DHT22;5508;49.150;11.030;2023-06-22T12:47:33;32.40;38.00
10911;DHT22;5508;49.150;11.030;2023-06-22T12:50:33;32.20;37.90
10911;DHT22;5508;49.150;11.030;2023-06-22T12:53:35;32.20;38.10
10911;DHT22;5508;49.150;11.030;2023-06-22T12:56:35;32.30;36.60
10911;DHT22;5508;49.150;11.030;2023-06-22T12:59:36;32.30;38.90
10911;DHT22;5508;49.150;11.030;2023-06-22T13:02:37;32.30;37.90
10911;DHT22;5508;49.150;11.030;2023-06-22T13:05:37;32.20;36.80
10911;DHT22;5508;49.150;11.030;2023-06-22T13:08:38;32.10;38.90
10911;DHT22;5508;49.150;11.030;2023-06-22T13:11:39;32.40;37.60
10911;DHT22;5508;49.150;11.030;2023-06-22T13:14:40;32.30;37.70
10911;DHT22;5508;49.150;11.030;2023-06-22T13:17:40;32.20;37.10
10911;DHT22;5508;49.150;11.030;2023-06-22T13:20:41;32.10;37.80
10911;DHT22;5508;49.150;11.030;2023-06-22T13:23:42;32.10;37.40
10911;DHT22;5508;49.150;11.030;2023-06-22T13:26:42;32.10;37.20
10911;DHT22;5508;49.150;11.030;2023-06-22T13:29:43;32.20;38.90
10911;DHT22;5508;49.150;11.030;2023-06-22T13:32:43;32.50;37.40
10911;DHT22;5508;49.150;11.030;2023-06-22T13:35:44;32.60;37.10
10911;DHT22;5508;49.150;11.030;2023-06-22T13:38:45;32.40;35.50
10911;DHT22;5508;49.150;11.030;2023-06-22T13:41:45;32.30;38.70
10911;DHT22;5508;49.150;11.030;2023-06-22T13:44:46;32.20;37.40
10911;DHT22;5508;49.150;11.030;2023-06-22T13:47:46;32.20;36.60
10911;DHT22;5508;49.150;11.030;2023-06-22T13:50:47;32.50;35.50
10911;DHT22;5508;49.150;11.030;2023-06-22T13:53:48;32.70;35.70
10911;DHT22;5508;49.150;11.030;2023-06-22T13:56:48;32.90;37.00
10911;DHT22;5508;49.150;11.030;2023-06-22T13:59:49;33.00;37.70
10911;DHT22;5508;49.150;11.030;2023-06-22T14:02:49;32.90;37.70
10911;DHT22;5508;49.150;11.030;2023-06-22T14:05:51;32.80;37.00
10911;DHT22;5508;49.150;11.030;2023-06-22T14:08:54;32.80;36.50
10911;DHT22;5508;49.150;11.030;2023-06-22T14:11:55;32.70;35.00
10911;DHT22;5508;49.150;11.030;2023-06-22T14:14:56;32.60;35.60
10911;DHT22;5508;49.150;11.030;2023-06-22T14:17:57;32.30;37.50
10911;DHT22;5508;49.150;11.030;2023-06-22T14:20:58;32.30;38.10
10911;DHT22;5508;49.150;11.030;2023-06-22T14:23:58;32.30;36.70
10911;DHT22;5508;49.150;11.030;2023-06-22T14:26:59;32.50;37.20
10911;DHT22;5508;49.150;11.030;2023-06-22T14:30:03;32.60;38.90
10911;DHT22;5508;49.150;11.030;2023-06-22T14:33:03;32.60;37.10
10911;DHT22;5508;49.150;11.030;2023-06-22T14:36:04;32.60;37.00
10911;DHT22;5508;49.150;11.030;2023-06-22T14:39:04;32.60;38.30
10911;DHT22;5508;49.150;11.030;2023-06-22T14:42:06;32.40;39.40
10911;DHT22;5508;49.150;11.030;2023-06-22T14:45:07;32.50;38.20
10911;DHT22;5508;49.150;11.030;2023-06-22T14:48:07;32.70;38.00
10911;DHT22;5508;49.150;11.030;2023-06-22T14:51:09;33.10;37.70
10911;DHT22;5508;49.150;11.030;2023-06-22T14:54:09;33.10;36.70
10911;DHT22;5508;49.150;11.030;2023-06-22T14:57:10;33.00;37.80
10911;DHT22;5508;49.150;11.030;2023-06-22T15:00:11;32.70;35.50
10911;DHT22;5508;49.150;11.030;2023-06-22T15:03:12;32.60;35.40
10911;DHT22;5508;49.150;11.030;2023-06-22T15:06:17;32.40;36.20
10911;DHT22;5508;49.150;11.030;2023-06-22T15:09:18;32.40;36.90
10911;DHT22;5508;49.150;11.030;2023-06-22T15:12:18;32.40;37.10
10911;DHT22;5508;49.150;11.030;2023-06-22T15:15:19;32.50;36.80
10911;DHT22;5508;49.150;11.030;2023-06-22T15:18:19;32.40;39.00
10911;DHT22;5508;49.150;11.030;2023-06-22T15:21:20;32.40;37.90
10911;DHT22;5508;49.150;11.030;2023-06-22T15:24:21;32.30;38.60
10911;DHT22;5508;49.150;11.030;2023-06-22T15:27:21;32.10;39.60
10911;DHT22;5508;49.150;11.030;2023-06-22T15:30:22;32.40;37.00
10911;DHT22;5508;49.150;11.030;2023-06-22T15:33:24;32.50;36.70
10911;DHT22;5508;49.150;11.030;2023-06-22T15:36:24;32.80;35.60
10911;DHT22;5508;49.150;11.030;2023-06-22T15:39:25;32.90;35.20
10911;DHT22;5508;49.150;11.030;2023-06-22T15:42:26;32.70;36.20
10911;DHT22;5508;49.150;11.030;2023-06-22T15:45:28;33.00;36.20
10911;DHT22;5508;49.150;11.030;2023-06-22T15:48:28;32.90;35.20
10911;DHT22;5508;49.150;11.030;2023-06-22T15:51:29;32.70;35.60
10911;DHT22;5508;49.150;11.030;2023-06-22T15:54:30;32.80;35.50
10911;DHT22;5508;49.150;11.030;2023-06-22T15:57:31;32.50;35.30
10911;DHT22;5508;49.150;11.030;2023-06-22T16:00:31;32.50;35.80
10911;DHT22;5508;49.150;11.030;2023-06-22T16:03:32;32.50;36.10
10911;DHT22;5508;49.150;11.030;2023-06-22T16:06:33;32.60;37.60
10911;DHT22;5508;49.150;11.030;2023-06-22T16:09:33;32.40;37.70
10911;DHT22;5508;49.150;11.030;2023-06-22T16:12:35;32.30;38.60
10911;DHT22;5508;49.150;11.030;2023-06-22T16:15:35;32.40;38.00
10911;DHT22;5508;49.150;11.030;2023-06-22T16:18:36;32.40;36.70
10911;DHT22;5508;49.150;11.030;2023-06-22T16:21:37;32.40;37.00
10911;DHT22;5508;49.150;11.030;2023-06-22T16:24:37;32.50;36.80
10911;DHT22;5508;49.150;11.030;2023-06-22T16:27:38;32.30;38.00
10911;DHT22;5508;49.150;11.030;2023-06-22T16:30:39;32.30;38.40
10911;DHT22;5508;49.150;11.030;2023-06-22T16:33:39;32.30;37.80
10911;DHT22;5508;49.150;11.030;2023-06-22T16:36:47;32.20;39.50
10911;DHT22;5508;49.150;11.030;2023-06-22T16:39:47;32.20;39.20
10911;DHT22;5508;49.150;11.030;2023-06-22T16:42:50;32.20;39.90
10911;DHT22;5508;49.150;11.030;2023-06-22T16:45:51;32.00;39.50
10911;DHT22;5508;49.150;11.030;2023-06-22T16:48:52;31.50;40.00
10911;DHT22;5508;49.150;11.030;2023-06-22T16:51:52;31.50;38.80
10911;DHT22;5508;49.150;11.030;2023-06-22T16:54:53;31.60;39.30
10911;DHT22;5508;49.150;11.030;2023-06-22T16:57:54;31.40;42.40
10911;DHT22;5508;49.150;11.030;2023-06-22T17:00:57;30.90;42.60
10911;DHT22;5508;49.150;11.030;2023-06-22T17:04:03;30.90;43.80
10911;DHT22;5508;49.150;11.030;2023-06-22T17:07:14;30.80;44.10
10911;DHT22;5508;49.150;11.030;2023-06-22T17:10:16;30.60;44.50
10911;DHT22;5508;49.150;11.030;2023-06-22T17:13:17;30.40;45.60
10911;DHT22;5508;49.150;11.030;2023-06-22T17:16:19;30.30;46.00
10911;DHT22;5508;49.150;11.030;2023-06-22T17:19:20;30.50;44.60
10911;DHT22;5508;49.150;11.030;2023-06-22T17:22:21;30.30;45.40
10911;DHT22;5508;49.150;11.030;2023-06-22T17:25:24;30.20;47.00
10911;DHT22;5508;49.150;11.030;2023-06-22T17:28:26;30.00;47.00
10911;DHT22;5508;49.150;11.030;2023-06-22T17:31:41;29.90;46.10
10911;DHT22;5508;49.150;11.030;2023-06-22T17:34:45;29.70;47.80
10911;DHT22;5508;49.150;11.030;2023-06-22T17:37:55;29.60;47.70
10911;DHT22;5508;49.150;11.030;2023-06-22T17:41:02;29.50;48.10
10911;DHT22;5508;49.150;11.030;2023-06-22T17:44:04;29.40;48.20
10911;DHT22;5508;49.150;11.030;2023-06-22T17:47:05;29.30;48.50
10911;DHT22;5508;49.150;11.030;2023-06-22T17:50:07;29.20;49.00
10911;DHT22;5508;49.150;11.030;2023-06-22T17:53:12;29.20;49.40
10911;DHT22;5508;49.150;11.030;2023-06-22T17:56:13;29.00;50.70
10911;DHT22;5508;49.150;11.030;2023-06-22T17:59:14;28.90;51.00
10911;DHT22;5508;49.150;11.030;2023-06-22T18:02:18;28.80;52.00
10911;DHT22;5508;49.150;11.030;2023-06-22T18:05:31;28.70;52.30
10911;DHT22;5508;49.150;11.030;2023-06-22T18:08:32;28.60;52.90
10911;DHT22;5508;49.150;11.030;2023-06-22T18:11:44;28.50;52.50
10911;DHT22;5508;49.150;11.030;2023-06-22T18:14:45;28.40;52.50
10911;DHT22;5508;49.150;11.030;2023-06-22T18:17:46;28.30;53.20
10911;DHT22;5508;49.150;11.030;2023-06-22T18:20:47;28.30;54.00
10911;DHT22;5508;49.150;11.030;2023-06-22T18:23:49;28.30;54.40
10911;DHT22;5508;49.150;11.030;2023-06-22T18:26:52;28.20;54.20
10911;DHT22;5508;49.150;11.030;2023-06-22T18:29:55;28.10;54.90
10911;DHT22;5508;49.150;11.030;2023-06-22T18:32:56;28.00;56.10
10911;DHT22;5508;49.150;11.030;2023-06-22T18:35:58;27.80;55.40
10911;DHT22;5508;49.150;11.030;2023-06-22T18:39:02;27.80;56.50
10911;DHT22;5508;49.150;11.030;2023-06-22T18:42:04;27.70;56.00
10911;DHT22;5508;49.150;11.030;2023-06-22T18:45:25;27.60;56.50
10911;DHT22;5508;49.150;11.030;2023-06-22T18:48:26;27.60;56.60
10911;DHT22;5508;49.150;11.030;2023-06-22T18:51:26;27.60;56.70
10911;DHT22;5508;49.150;11.030;2023-06-22T18:54:38;27.50;57.80
10911;DHT22;5508;49.150;11.030;2023-06-22T18:57:39;27.30;58.40
10911;DHT22;5508;49.150;11.030;2023-06-22T19:00:40;27.30;59.10
10911;DHT22;5508;49.150;11.030;2023-06-22T19:03:41;27.20;60.10
10911;DHT22;5508;49.150;11.030;2023-06-22T19:10:24;27.00;61.20
10911;DHT22;5508;49.150;11.030;2023-06-22T19:13:25;26.90;61.00
10911;DHT22;5508;49.150;11.030;2023-06-22T19:16:30;26.80;61.70
10911;DHT22;5508;49.150;11.030;2023-06-22T19:19:34;26.70;62.60